createdAt,value
2019-03-10T00:01:50.661Z,64.26
2019-03-10T00:04:22.480Z,65.07
2019-03-10T00:06:54.062Z,64.80
2019-03-10T00:09:25.613Z,62.85
2019-03-10T00:11:57.293Z,61.45
2019-03-10T00:14:28.879Z,61.99
2019-03-10T00:17:00.446Z,62.55
2019-03-10T00:19:33.034Z,62.75
2019-03-10T00:22:04.870Z,63.22
2019-03-10T00:24:36.503Z,63.42
2019-03-10T00:27:08.134Z,63.36
2019-03-10T00:29:39.753Z,63.23
2019-03-10T00:32:11.282Z,62.66
2019-03-10T00:34:42.845Z,62.89
2019-03-10T00:37:14.477Z,62.68
2019-03-10T00:40:08.802Z,62.19
2019-03-10T00:43:10.636Z,62.00
2019-03-10T00:46:35.209Z,62.53
2019-03-10T00:49:37.213Z,62.26
2019-03-10T00:52:25.045Z,62.60
2019-03-10T00:54:56.755Z,62.47
2019-03-10T00:57:28.344Z,62.62
2019-03-10T01:00:00.837Z,61.92
2019-03-10T01:02:34.396Z,61.86
2019-03-10T01:05:07.475Z,62.44
2019-03-10T01:07:39.084Z,62.75
2019-03-10T01:10:10.653Z,62.22
2019-03-10T01:12:42.788Z,62.03
2019-03-10T01:15:15.957Z,61.72
2019-03-10T01:17:47.496Z,62.23
2019-03-10T01:20:19.106Z,62.13
2019-03-10T01:22:50.839Z,62.07
2019-03-10T01:25:22.577Z,61.58
2019-03-10T01:27:54.293Z,61.42
2019-03-10T01:30:25.873Z,61.17
2019-03-10T01:33:20.363Z,61.19
2019-03-10T01:35:51.874Z,61.60
2019-03-10T01:38:23.397Z,61.52
2019-03-10T01:40:54.904Z,61.47
2019-03-10T01:43:27.117Z,61.75
2019-03-10T01:45:58.713Z,61.82
2019-03-10T01:48:30.334Z,61.77
2019-03-10T01:51:02.269Z,61.90
2019-03-10T01:53:33.900Z,62.31
2019-03-10T01:56:05.411Z,62.25
2019-03-10T01:58:36.922Z,62.06
2019-03-10T02:01:09.047Z,62.33
2019-03-10T02:03:40.713Z,61.83
2019-03-10T02:06:12.289Z,62.30
2019-03-10T02:08:43.937Z,62.49
2019-03-10T02:11:15.551Z,62.24
2019-03-10T02:13:47.063Z,62.28
2019-03-10T02:16:18.655Z,61.83
2019-03-10T02:18:50.296Z,62.30
2019-03-10T02:21:22.051Z,62.67
2019-03-10T02:23:53.925Z,62.63
2019-03-10T02:26:26.157Z,62.22
2019-03-10T02:28:58.055Z,62.26
2019-03-10T02:31:29.644Z,62.50
2019-03-10T02:34:01.221Z,62.34
2019-03-10T02:36:32.762Z,62.19
2019-03-10T02:39:05.264Z,62.17
2019-03-10T02:41:37.479Z,61.98
2019-03-10T02:44:08.998Z,62.20
2019-03-10T02:46:40.506Z,61.93
2019-03-10T02:49:12.048Z,61.61
2019-03-10T02:51:43.680Z,61.80
2019-03-10T02:54:15.303Z,61.60
2019-03-10T02:56:46.968Z,61.70
2019-03-10T02:59:18.553Z,61.13
2019-03-10T03:01:50.774Z,61.20
2019-03-10T03:04:22.285Z,60.91
2019-03-10T03:06:53.888Z,60.46
2019-03-10T03:09:25.472Z,60.68
2019-03-10T03:11:57.141Z,60.30
2019-03-10T03:14:28.874Z,60.04
2019-03-10T03:17:00.546Z,60.44
2019-03-10T03:19:32.257Z,60.33
2019-03-10T03:22:04.001Z,60.48
2019-03-10T03:24:35.657Z,60.50
2019-03-10T03:27:07.163Z,61.03
2019-03-10T03:29:39.543Z,60.88
2019-03-10T03:32:11.175Z,60.68
2019-03-10T03:34:42.741Z,60.83
2019-03-10T03:37:14.843Z,60.86
2019-03-10T03:39:46.630Z,60.93
2019-03-10T03:42:18.253Z,60.94
2019-03-10T03:44:50.266Z,61.27
2019-03-10T03:47:21.797Z,61.48
2019-03-10T03:49:54.289Z,61.90
2019-03-10T03:52:25.946Z,61.98
2019-03-10T03:54:57.794Z,62.34
2019-03-10T03:57:29.404Z,62.39
2019-03-10T04:00:00.958Z,62.29
2019-03-10T04:02:37.563Z,62.32
2019-03-10T04:05:10.892Z,62.50
2019-03-10T04:07:42.491Z,62.68
2019-03-10T04:10:14.018Z,62.82
2019-03-10T04:12:46.133Z,62.98
2019-03-10T04:15:17.830Z,63.09
2019-03-10T04:17:49.751Z,63.03
2019-03-10T04:20:21.337Z,63.23
2019-03-10T04:22:52.909Z,63.25
2019-03-10T04:25:24.972Z,63.46
2019-03-10T04:27:57.759Z,63.36
2019-03-10T04:30:29.352Z,63.25
2019-03-10T04:33:00.921Z,63.22
2019-03-10T04:35:32.770Z,63.35
2019-03-10T04:38:04.575Z,63.56
2019-03-10T04:40:36.743Z,63.20
2019-03-10T04:43:08.291Z,63.40
2019-03-10T04:45:39.820Z,63.46
2019-03-10T04:48:11.367Z,63.67
2019-03-10T04:50:42.988Z,63.73
2019-03-10T04:53:14.839Z,63.75
2019-03-10T04:55:51.182Z,63.77
2019-03-10T04:58:24.590Z,63.83
2019-03-10T05:00:58.093Z,63.91
2019-03-10T05:03:30.350Z,63.59
2019-03-10T05:06:01.973Z,63.84
2019-03-10T05:08:33.505Z,63.73
2019-03-10T05:11:05.039Z,63.96
2019-03-10T05:13:37.627Z,63.97
2019-03-10T05:16:09.187Z,64.31
2019-03-10T05:18:40.696Z,63.94
2019-03-10T05:21:12.190Z,64.32
2019-03-10T05:23:43.852Z,64.35
2019-03-10T05:26:15.371Z,64.58
2019-03-10T05:28:47.127Z,64.65
2019-03-10T05:31:19.808Z,64.38
2019-03-10T05:33:51.425Z,64.47
2019-03-10T05:36:23.118Z,64.73
2019-03-10T05:38:54.798Z,64.78
2019-03-10T05:41:26.354Z,64.93
2019-03-10T05:43:58.854Z,64.97
2019-03-10T05:46:31.548Z,65.00
2019-03-10T05:49:03.062Z,64.73
2019-03-10T05:51:34.639Z,64.74
2019-03-10T05:54:06.438Z,64.67
2019-03-10T05:56:38.028Z,64.45
2019-03-10T05:59:09.523Z,64.01
2019-03-10T06:01:41.075Z,63.86
2019-03-10T06:04:12.938Z,63.79
2019-03-10T06:06:44.446Z,63.37
2019-03-10T06:09:16.826Z,62.73
2019-03-10T06:11:48.739Z,62.24
2019-03-10T06:14:20.558Z,61.80
2019-03-10T06:16:52.210Z,60.96
2019-03-10T06:19:23.749Z,60.52
2019-03-10T06:21:55.331Z,59.89
2019-03-10T06:24:26.968Z,59.50
2019-03-10T06:26:58.561Z,59.53
2019-03-10T06:29:30.149Z,59.42
2019-03-10T06:32:01.785Z,59.54
2019-03-10T06:34:33.447Z,59.59
2019-03-10T06:37:05.296Z,59.30
2019-03-10T06:39:36.948Z,58.89
2019-03-10T06:42:08.532Z,58.62
2019-03-10T06:44:40.427Z,58.33
2019-03-10T06:47:12.074Z,57.88
2019-03-10T06:49:43.576Z,57.86
2019-03-10T06:52:15.264Z,57.82
2019-03-10T06:54:47.992Z,57.65
2019-03-10T06:57:19.659Z,58.04
2019-03-10T06:59:51.355Z,58.24
2019-03-10T07:02:23.085Z,58.29
2019-03-10T07:04:54.795Z,57.90
2019-03-10T07:07:26.383Z,57.75
2019-03-10T07:09:57.892Z,57.86
2019-03-10T07:12:29.656Z,57.98
2019-03-10T07:15:01.157Z,57.66
2019-03-10T07:17:32.949Z,58.04
2019-03-10T07:20:14.975Z,57.74
2019-03-10T07:22:46.884Z,57.75
2019-03-10T07:25:21.777Z,57.98
2019-03-10T07:28:05.173Z,58.06
2019-03-10T07:30:44.590Z,57.79
2019-03-10T07:33:26.902Z,58.08
2019-03-10T07:36:16.965Z,57.97
2019-03-10T07:39:06.104Z,57.60
2019-03-10T07:41:47.506Z,57.49
2019-03-10T07:44:22.322Z,57.12
2019-03-10T07:46:58.499Z,57.42
2019-03-10T07:49:34.761Z,56.89
2019-03-10T07:52:07.157Z,56.49
2019-03-10T07:54:43.058Z,55.74
2019-03-10T07:57:27.742Z,55.75
2019-03-10T08:00:01.048Z,55.46
2019-03-10T08:02:51.023Z,54.95
2019-03-10T08:05:28.595Z,55.21
2019-03-10T08:08:07.929Z,54.91
2019-03-10T08:10:50.015Z,54.47
2019-03-10T08:13:29.148Z,54.31
2019-03-10T08:16:02.368Z,54.20
2019-03-10T08:18:41.797Z,54.33
2019-03-10T08:21:15.130Z,54.18
2019-03-10T08:23:46.456Z,54.24
2019-03-10T08:26:27.966Z,54.17
2019-03-10T08:29:11.457Z,53.77
2019-03-10T08:31:47.362Z,54.17
2019-03-10T08:34:38.721Z,53.68
2019-03-10T08:37:10.079Z,53.31
2019-03-10T08:39:50.801Z,52.22
2019-03-10T08:42:24.050Z,52.27
2019-03-10T08:45:06.034Z,52.13
2019-03-10T08:47:58.182Z,51.07
2019-03-10T08:50:37.466Z,49.77
2019-03-10T08:53:24.290Z,50.39
2019-03-10T08:56:13.689Z,49.67
2019-03-10T08:59:05.043Z,47.83
2019-03-10T09:01:54.455Z,47.91
2019-03-10T09:04:31.751Z,47.14
2019-03-10T09:07:17.290Z,46.53
2019-03-10T09:09:53.384Z,46.27
2019-03-10T09:12:29.571Z,46.64
2019-03-10T09:15:05.876Z,46.06
2019-03-10T09:17:48.036Z,46.11
2019-03-10T09:20:22.330Z,45.47
2019-03-10T09:22:55.638Z,46.00
2019-03-10T09:25:36.505Z,45.73
2019-03-10T09:28:09.679Z,44.77
2019-03-10T09:30:59.053Z,44.41
2019-03-10T09:33:35.607Z,45.60
2019-03-10T09:36:12.007Z,44.88
2019-03-10T09:39:01.835Z,45.53
2019-03-10T09:41:42.735Z,45.45
2019-03-10T09:44:25.840Z,46.10
2019-03-10T09:47:08.229Z,46.40
2019-03-10T09:49:53.473Z,46.00
2019-03-10T09:52:26.815Z,45.55
2019-03-10T09:55:00.991Z,46.00
2019-03-10T09:57:46.856Z,47.12
2019-03-10T10:00:19.999Z,46.94
2019-03-10T10:02:58.850Z,46.41
2019-03-10T10:05:36.480Z,47.04
2019-03-10T10:08:22.319Z,46.59
2019-03-10T10:11:05.771Z,46.45
2019-03-10T10:13:42.071Z,46.76
2019-03-10T10:16:30.595Z,47.54
2019-03-10T10:19:10.231Z,47.92
2019-03-10T10:21:59.837Z,47.05
2019-03-10T10:24:45.171Z,46.48
2019-03-10T10:27:20.108Z,45.62
2019-03-10T10:30:03.603Z,44.79
2019-03-10T10:32:39.896Z,44.58
2019-03-10T10:35:29.240Z,45.37
2019-03-10T10:38:18.961Z,44.69
2019-03-10T10:41:02.738Z,45.52
2019-03-10T10:43:43.376Z,45.85
2019-03-10T10:46:32.958Z,45.79
2019-03-10T10:49:06.126Z,46.21
2019-03-10T10:51:55.999Z,46.34
2019-03-10T10:54:27.389Z,47.26
2019-03-10T10:57:03.507Z,47.21
2019-03-10T10:59:52.194Z,47.50
2019-03-10T11:02:41.743Z,47.85
2019-03-10T11:05:21.300Z,46.68
2019-03-10T11:07:59.800Z,46.79
2019-03-10T11:10:39.125Z,47.04
2019-03-10T11:13:22.262Z,46.91
2019-03-10T11:16:11.297Z,46.44
2019-03-10T11:19:00.215Z,46.46
2019-03-10T11:21:33.400Z,44.67
2019-03-10T11:24:10.483Z,44.82
2019-03-10T11:26:48.604Z,44.44
2019-03-10T11:29:29.848Z,44.18
2019-03-10T11:32:19.055Z,44.32
2019-03-10T11:34:57.254Z,44.20
2019-03-10T11:37:30.558Z,44.22
2019-03-10T11:40:11.704Z,43.37
2019-03-10T11:43:13.226Z,42.55
2019-03-10T11:46:08.539Z,41.91
2019-03-10T11:48:56.252Z,42.26
2019-03-10T11:51:34.067Z,42.67
2019-03-10T11:54:08.648Z,42.40
2019-03-10T11:57:02.618Z,43.18
2019-03-10T11:59:46.148Z,41.94
2019-03-10T12:02:20.965Z,42.40
2019-03-10T12:05:13.566Z,42.73
2019-03-10T12:10:46.283Z,42.25
2019-03-10T12:13:39.139Z,42.94
2019-03-10T12:16:33.208Z,43.61
2019-03-10T12:19:07.869Z,44.31
2019-03-10T12:21:43.993Z,44.75
2019-03-10T12:24:21.603Z,44.52
2019-03-10T12:26:54.566Z,44.85
2019-03-10T12:29:29.247Z,45.27
2019-03-10T12:32:02.050Z,44.76
2019-03-10T12:34:34.990Z,44.47
2019-03-10T12:37:09.178Z,44.28
2019-03-10T12:39:41.289Z,44.21
2019-03-10T12:42:13.893Z,43.88
2019-03-10T12:44:45.566Z,43.50
2019-03-10T12:47:17.203Z,43.41
2019-03-10T12:49:48.763Z,43.14
2019-03-10T12:52:20.346Z,42.45
2019-03-10T12:54:52.496Z,41.62
2019-03-10T12:57:24.086Z,41.47
2019-03-10T12:59:55.742Z,41.42
2019-03-10T13:02:28.897Z,41.21
2019-03-10T13:05:01.582Z,41.41
2019-03-10T13:07:34.470Z,41.71
2019-03-10T13:10:06.969Z,42.50
2019-03-10T13:12:38.532Z,42.20
2019-03-10T13:15:12.536Z,42.09
2019-03-10T13:17:44.165Z,42.49
2019-03-10T13:20:15.755Z,43.05
2019-03-10T13:22:47.281Z,43.84
2019-03-10T13:25:18.958Z,44.49
2019-03-10T13:27:50.479Z,44.79
2019-03-10T13:30:22.006Z,45.13
2019-03-10T13:32:53.686Z,44.05
2019-03-10T13:35:25.323Z,42.30
2019-03-10T13:37:56.934Z,42.82
2019-03-10T13:40:28.559Z,42.87
2019-03-10T13:43:00.160Z,43.46
2019-03-10T13:45:31.687Z,43.00
2019-03-10T13:48:03.339Z,43.09
2019-03-10T13:50:35.380Z,44.17
2019-03-10T13:53:06.854Z,45.07
2019-03-10T13:55:38.421Z,46.77
2019-03-10T13:58:10.044Z,46.76
2019-03-10T14:00:41.759Z,46.75
2019-03-10T14:03:13.360Z,47.45
2019-03-10T14:05:44.901Z,47.09
2019-03-10T14:08:16.478Z,47.94
2019-03-10T14:10:47.996Z,48.61
2019-03-10T14:13:20.951Z,48.48
2019-03-10T14:15:53.547Z,49.25
2019-03-10T14:18:25.165Z,48.46
2019-03-10T14:20:56.798Z,49.81
2019-03-10T14:23:28.393Z,50.81
2019-03-10T14:25:59.992Z,51.26
2019-03-10T14:28:31.500Z,51.39
2019-03-10T14:31:03.080Z,51.66
2019-03-10T14:33:34.566Z,52.12
2019-03-10T14:36:06.447Z,52.49
2019-03-10T14:38:37.943Z,53.08
2019-03-10T14:41:09.501Z,52.07
2019-03-10T14:43:41.027Z,52.88
2019-03-10T14:46:12.515Z,53.30
2019-03-10T14:48:45.183Z,53.46
2019-03-10T14:51:16.916Z,54.58
2019-03-10T14:53:49.605Z,55.19
2019-03-10T14:56:21.240Z,55.03
2019-03-10T14:58:52.785Z,55.37
2019-03-10T15:01:24.349Z,56.61
2019-03-10T15:03:56.009Z,57.26
2019-03-10T15:06:27.607Z,58.12
2019-03-10T15:08:59.163Z,58.07
2019-03-10T15:11:30.707Z,58.59
2019-03-10T15:14:02.219Z,58.37
2019-03-10T15:16:33.864Z,57.80
2019-03-10T15:19:05.372Z,58.01
2019-03-10T15:21:36.976Z,58.70
2019-03-10T15:24:08.610Z,58.83
2019-03-10T15:26:45.601Z,58.86
2019-03-10T15:29:13.445Z,59.61
2019-03-10T15:31:45.028Z,59.65
2019-03-10T15:34:16.543Z,59.08
2019-03-10T15:36:48.125Z,59.16
2019-03-10T15:39:19.714Z,60.18
2019-03-10T15:41:51.274Z,59.69
2019-03-10T15:44:22.838Z,60.43
2019-03-10T15:46:54.379Z,60.96
2019-03-10T15:49:25.999Z,61.36
2019-03-10T15:51:57.801Z,61.21
2019-03-10T15:54:29.563Z,61.83
2019-03-10T15:57:01.160Z,61.44
2019-03-10T15:59:33.752Z,61.76
2019-03-10T16:02:05.410Z,62.11
2019-03-10T16:04:37.198Z,62.00
2019-03-10T16:07:08.675Z,61.56
2019-03-10T16:09:40.184Z,61.65
2019-03-10T16:12:11.728Z,62.07
2019-03-10T16:14:43.349Z,61.96
2019-03-10T16:17:14.909Z,61.72
2019-03-10T16:19:46.499Z,62.23
2019-03-10T16:22:18.006Z,62.59
2019-03-10T16:24:49.971Z,62.61
2019-03-10T16:27:21.460Z,62.58
2019-03-10T16:29:53.033Z,61.81
2019-03-10T16:32:24.761Z,62.02
2019-03-10T16:34:56.251Z,61.98
2019-03-10T16:37:27.853Z,62.79
2019-03-10T16:39:59.448Z,63.16
2019-03-10T16:42:31.347Z,62.83
2019-03-10T16:45:03.048Z,62.80
2019-03-10T16:47:34.864Z,62.80
2019-03-10T16:50:10.980Z,63.98
2019-03-10T16:52:42.530Z,64.44
2019-03-10T16:55:14.166Z,64.49
2019-03-10T16:57:45.764Z,65.27
2019-03-10T17:00:19.685Z,65.75
2019-03-10T17:02:52.224Z,65.56
2019-03-10T17:05:24.315Z,65.61
2019-03-10T17:07:55.819Z,65.65
2019-03-10T17:10:27.982Z,66.39
2019-03-10T17:12:59.659Z,66.65
2019-03-10T17:15:31.244Z,67.70
2019-03-10T17:18:02.784Z,67.62
2019-03-10T17:20:34.399Z,67.83
2019-03-10T17:23:06.136Z,68.06
2019-03-10T17:25:37.729Z,67.96
2019-03-10T17:28:09.253Z,68.38
2019-03-10T17:30:41.928Z,68.87
2019-03-10T17:33:13.430Z,69.18
2019-03-10T17:35:46.092Z,68.52
2019-03-10T17:38:18.302Z,68.71
2019-03-10T17:40:49.897Z,68.53
2019-03-10T17:43:21.659Z,68.60
2019-03-10T17:45:53.231Z,68.21
2019-03-10T17:48:24.921Z,68.72
2019-03-10T17:50:57.624Z,68.60
2019-03-10T17:53:29.170Z,68.83
2019-03-10T17:56:00.832Z,68.96
2019-03-10T17:58:34.179Z,69.22
2019-03-10T18:01:06.052Z,69.69
2019-03-10T18:03:37.663Z,69.63
2019-03-10T18:06:09.241Z,68.91
2019-03-10T18:08:40.909Z,69.01
2019-03-10T18:11:17.183Z,69.50
2019-03-10T18:13:48.883Z,69.99
2019-03-10T18:16:20.532Z,69.99
2019-03-10T18:18:52.230Z,70.11
2019-03-10T18:21:23.765Z,70.29
2019-03-10T18:23:55.283Z,71.34
2019-03-10T18:26:26.808Z,69.96
2019-03-10T18:28:58.382Z,69.61
2019-03-10T18:31:29.880Z,69.92
2019-03-10T18:34:01.583Z,69.66
2019-03-10T18:36:33.197Z,69.85
2019-03-10T18:39:06.851Z,69.60
2019-03-10T18:41:39.143Z,69.48
2019-03-10T18:44:10.823Z,68.78
2019-03-10T18:46:42.426Z,69.14
2019-03-10T18:49:15.110Z,69.22
2019-03-10T18:51:46.624Z,68.83
2019-03-10T18:54:18.378Z,68.69
2019-03-10T18:56:50.369Z,68.72
2019-03-10T18:59:22.098Z,68.62
2019-03-10T19:01:53.734Z,68.53
2019-03-10T19:04:25.302Z,68.41
2019-03-10T19:06:57.050Z,68.58
2019-03-10T19:09:28.771Z,68.55
2019-03-10T19:12:00.297Z,68.82
2019-03-10T19:14:31.955Z,69.31
2019-03-10T19:17:03.719Z,69.95
2019-03-10T19:19:35.359Z,70.19
2019-03-10T19:22:07.069Z,71.08
2019-03-10T19:24:38.664Z,72.14
2019-03-10T19:27:10.248Z,72.57
2019-03-10T19:29:42.054Z,73.25
2019-03-10T19:32:13.650Z,73.59
2019-03-10T19:34:45.381Z,73.83
2019-03-10T19:37:17.325Z,74.12
2019-03-10T19:39:48.980Z,74.20
2019-03-10T19:42:20.982Z,74.30
2019-03-10T19:44:52.612Z,74.06
2019-03-10T19:47:25.167Z,73.69
2019-03-10T19:49:56.838Z,74.01
2019-03-10T19:52:28.465Z,74.51
2019-03-10T19:55:00.312Z,74.39
2019-03-10T19:57:32.459Z,73.94
2019-03-10T20:00:15.035Z,74.18
2019-03-10T20:02:47.691Z,74.09
2019-03-10T20:05:19.239Z,73.98
2019-03-10T20:07:50.826Z,73.60
2019-03-10T20:10:25.677Z,73.42
2019-03-10T20:12:57.319Z,72.78
2019-03-10T20:15:28.853Z,72.77
2019-03-10T20:18:00.502Z,73.28
2019-03-10T20:20:36.366Z,73.24
2019-03-10T20:23:07.972Z,73.74
2019-03-10T20:25:39.627Z,73.89
2019-03-10T20:28:11.222Z,74.31
2019-03-10T20:30:42.928Z,74.69
2019-03-10T20:33:14.666Z,74.69
2019-03-10T20:35:46.292Z,74.25
2019-03-10T20:38:17.920Z,74.91
2019-03-10T20:40:49.448Z,75.05
2019-03-10T20:43:20.968Z,74.78
2019-03-10T20:45:52.857Z,75.24
2019-03-10T20:48:24.872Z,75.86
2019-03-10T20:50:56.536Z,75.64
2019-03-10T20:53:30.613Z,74.96
2019-03-10T20:56:01.707Z,75.29
2019-03-10T20:58:34.946Z,75.63
2019-03-10T21:01:06.977Z,75.92
2019-03-10T21:03:38.813Z,75.90
2019-03-10T21:06:10.535Z,76.09
2019-03-10T21:08:42.110Z,75.77
2019-03-10T21:11:13.666Z,75.76
2019-03-10T21:13:45.251Z,75.78
2019-03-10T21:16:16.840Z,75.90
2019-03-10T21:18:48.406Z,75.82
2019-03-10T21:21:20.130Z,75.97
2019-03-10T21:23:51.705Z,76.06
2019-03-10T21:26:23.407Z,76.27
2019-03-10T21:28:55.053Z,76.28
2019-03-10T21:31:26.578Z,75.93
2019-03-10T21:33:58.340Z,76.05
2019-03-10T21:36:30.034Z,76.23
2019-03-10T21:39:01.626Z,76.17
2019-03-10T21:41:34.812Z,76.28
2019-03-10T21:44:06.400Z,76.76
2019-03-10T21:46:38.080Z,76.68
2019-03-10T21:49:09.747Z,76.44
2019-03-10T21:51:41.259Z,76.46
2019-03-10T21:54:12.906Z,76.52
2019-03-10T21:56:44.501Z,76.41
2019-03-10T21:59:16.096Z,76.71
2019-03-10T22:01:47.726Z,76.46
2019-03-10T22:04:19.281Z,76.52
2019-03-10T22:06:50.865Z,76.65
2019-03-10T22:09:23.325Z,76.78
2019-03-10T22:11:57.643Z,76.72
2019-03-10T22:14:33.507Z,77.06
2019-03-10T22:17:13.292Z,77.13
2019-03-10T22:19:47.431Z,77.11
2019-03-10T22:22:20.958Z,77.09
2019-03-10T22:24:53.948Z,77.33
2019-03-10T22:27:28.588Z,77.52
2019-03-10T22:30:02.608Z,77.68
2019-03-10T22:32:34.718Z,77.64
2019-03-10T22:35:07.204Z,77.55
2019-03-10T22:37:38.808Z,77.76
2019-03-10T22:40:17.674Z,77.63
2019-03-10T22:42:49.244Z,77.56
2019-03-10T22:45:21.689Z,77.50
2019-03-10T22:47:53.306Z,77.57
2019-03-10T22:50:24.967Z,77.60
2019-03-10T22:52:56.543Z,77.52
2019-03-10T22:55:28.302Z,77.55
2019-03-10T22:57:59.896Z,77.54
2019-03-10T23:00:49.630Z,77.47
2019-03-10T23:03:21.555Z,77.62
2019-03-10T23:05:53.108Z,77.64
2019-03-10T23:08:24.915Z,77.51
2019-03-10T23:10:56.477Z,77.52
2019-03-10T23:13:28.038Z,77.56
2019-03-10T23:15:59.748Z,77.45
2019-03-10T23:18:31.333Z,77.41
2019-03-10T23:21:03.428Z,77.47
2019-03-10T23:23:35.119Z,77.27
2019-03-10T23:26:06.761Z,77.16
2019-03-10T23:28:38.530Z,77.22
2019-03-10T23:31:10.185Z,77.21
2019-03-10T23:33:41.848Z,77.19
2019-03-10T23:36:13.944Z,77.05
2019-03-10T23:38:45.575Z,77.03
2019-03-10T23:41:17.328Z,76.90
2019-03-10T23:43:48.917Z,76.83
2019-03-10T23:46:20.487Z,76.91
2019-03-10T23:48:52.309Z,76.86
2019-03-10T23:51:24.016Z,76.78
2019-03-10T23:53:56.008Z,76.74
2019-03-10T23:56:27.538Z,76.58
2019-03-10T23:58:59.019Z,76.48
